Terminal Aerodrome Forecast
Issued by NWS Tampa Bay Area, FL

Home | Current Version | Previous Version | Text Only | Print | Product List | Glossary On
Versions: 1 2 3 4 5 6 7 8 9 10 11 12 13 14 15 16
000
FTUS42 KTBW 171100
TAFFMY
TAF
KFMY 171122Z 1712/1812 06007KT P6SM BKN070
     FM171400 08011KT P6SM SCT025 BKN080
     FM171800 07012G20KT P6SM VCSH SCT035 BKN100
     FM180100 07009KT P6SM FEW040 BKN110=

USA.gov is the U.S. government's official web portal to all federal, state and local government web resources and services.